sensor_id;sensor_type;location;lat;lon;timestamp;P1;durP1;ratioP1;P2;durP2;ratioP2
78873;SDS011;68250;43.514;1.494;2024-01-27T00:01:49;57.45;;;25.65;;
78873;SDS011;68250;43.514;1.494;2024-01-27T00:04:15;51.50;;;24.60;;
78873;SDS011;68250;43.514;1.494;2024-01-27T00:06:41;51.63;;;24.10;;
78873;SDS011;68250;43.514;1.494;2024-01-27T00:09:07;50.97;;;24.20;;
78873;SDS011;68250;43.514;1.494;2024-01-27T00:11:32;53.05;;;24.75;;
78873;SDS011;68250;43.514;1.494;2024-01-27T00:13:58;53.30;;;22.50;;
78873;SDS011;68250;43.514;1.494;2024-01-27T00:16:26;49.78;;;22.75;;
78873;SDS011;68250;43.514;1.494;2024-01-27T00:18:52;58.60;;;24.33;;
78873;SDS011;68250;43.514;1.494;2024-01-27T00:21:17;50.15;;;23.08;;
78873;SDS011;68250;43.514;1.494;2024-01-27T00:23:43;53.80;;;23.93;;
78873;SDS011;68250;43.514;1.494;2024-01-27T00:26:08;56.30;;;23.83;;
78873;SDS011;68250;43.514;1.494;2024-01-27T00:28:34;55.85;;;22.23;;
78873;SDS011;68250;43.514;1.494;2024-01-27T00:31:00;62.13;;;22.57;;
78873;SDS011;68250;43.514;1.494;2024-01-27T00:33:25;75.03;;;23.02;;
78873;SDS011;68250;43.514;1.494;2024-01-27T00:35:51;71.83;;;22.50;;
78873;SDS011;68250;43.514;1.494;2024-01-27T00:38:17;268.70;;;45.00;;
78873;SDS011;68250;43.514;1.494;2024-01-27T00:40:43;297.50;;;51.13;;
78873;SDS011;68250;43.514;1.494;2024-01-27T00:43:08;105.85;;;22.30;;
78873;SDS011;68250;43.514;1.494;2024-01-27T00:45:34;110.37;;;20.90;;
78873;SDS011;68250;43.514;1.494;2024-01-27T00:48:00;58.05;;;20.15;;
78873;SDS011;68250;43.514;1.494;2024-01-27T00:50:25;75.60;;;20.73;;
78873;SDS011;68250;43.514;1.494;2024-01-27T00:52:51;81.68;;;20.65;;
78873;SDS011;68250;43.514;1.494;2024-01-27T00:55:16;60.97;;;19.47;;
78873;SDS011;68250;43.514;1.494;2024-01-27T00:57:42;139.15;;;19.90;;
78873;SDS011;68250;43.514;1.494;2024-01-27T01:00:08;64.57;;;19.63;;
78873;SDS011;68250;43.514;1.494;2024-01-27T01:02:35;63.53;;;19.35;;
78873;SDS011;68250;43.514;1.494;2024-01-27T01:05:02;85.40;;;17.77;;
78873;SDS011;68250;43.514;1.494;2024-01-27T01:07:29;87.55;;;18.80;;
78873;SDS011;68250;43.514;1.494;2024-01-27T01:09:55;83.17;;;18.53;;
78873;SDS011;68250;43.514;1.494;2024-01-27T01:12:21;85.82;;;17.92;;
78873;SDS011;68250;43.514;1.494;2024-01-27T01:14:46;73.20;;;17.80;;
78873;SDS011;68250;43.514;1.494;2024-01-27T01:17:12;73.80;;;17.38;;
78873;SDS011;68250;43.514;1.494;2024-01-27T01:19:38;46.53;;;14.80;;
78873;SDS011;68250;43.514;1.494;2024-01-27T01:22:04;48.47;;;13.90;;
78873;SDS011;68250;43.514;1.494;2024-01-27T01:24:30;46.65;;;13.35;;
78873;SDS011;68250;43.514;1.494;2024-01-27T01:26:56;60.53;;;13.40;;
78873;SDS011;68250;43.514;1.494;2024-01-27T01:29:22;35.50;;;11.90;;
78873;SDS011;68250;43.514;1.494;2024-01-27T01:31:48;46.30;;;13.07;;
78873;SDS011;68250;43.514;1.494;2024-01-27T01:34:14;42.95;;;13.15;;
78873;SDS011;68250;43.514;1.494;2024-01-27T01:36:40;48.55;;;13.55;;
78873;SDS011;68250;43.514;1.494;2024-01-27T01:39:06;40.80;;;14.40;;
78873;SDS011;68250;43.514;1.494;2024-01-27T01:41:32;80.28;;;18.17;;
78873;SDS011;68250;43.514;1.494;2024-01-27T01:43:57;70.97;;;16.05;;
78873;SDS011;68250;43.514;1.494;2024-01-27T01:46:23;87.87;;;16.60;;
78873;SDS011;68250;43.514;1.494;2024-01-27T01:48:49;80.53;;;17.77;;
78873;SDS011;68250;43.514;1.494;2024-01-27T01:51:18;88.37;;;20.23;;
78873;SDS011;68250;43.514;1.494;2024-01-27T01:53:44;50.85;;;16.58;;
78873;SDS011;68250;43.514;1.494;2024-01-27T01:56:13;66.82;;;13.23;;
78873;SDS011;68250;43.514;1.494;2024-01-27T01:58:40;44.05;;;11.75;;
78873;SDS011;68250;43.514;1.494;2024-01-27T02:01:06;36.22;;;11.45;;
78873;SDS011;68250;43.514;1.494;2024-01-27T02:03:32;69.07;;;11.20;;
78873;SDS011;68250;43.514;1.494;2024-01-27T02:05:58;104.32;;;11.63;;
78873;SDS011;68250;43.514;1.494;2024-01-27T02:08:23;45.27;;;11.40;;
78873;SDS011;68250;43.514;1.494;2024-01-27T02:10:49;40.65;;;10.50;;
78873;SDS011;68250;43.514;1.494;2024-01-27T02:13:18;24.63;;;9.50;;
78873;SDS011;68250;43.514;1.494;2024-01-27T02:15:45;34.58;;;9.55;;
78873;SDS011;68250;43.514;1.494;2024-01-27T02:18:11;40.42;;;9.27;;
78873;SDS011;68250;43.514;1.494;2024-01-27T02:20:37;30.75;;;9.10;;
78873;SDS011;68250;43.514;1.494;2024-01-27T02:23:03;31.15;;;8.80;;
78873;SDS011;68250;43.514;1.494;2024-01-27T02:25:33;29.48;;;8.75;;
78873;SDS011;68250;43.514;1.494;2024-01-27T02:27:59;62.47;;;8.20;;
78873;SDS011;68250;43.514;1.494;2024-01-27T02:30:25;49.15;;;8.50;;
78873;SDS011;68250;43.514;1.494;2024-01-27T02:32:51;25.17;;;8.10;;
78873;SDS011;68250;43.514;1.494;2024-01-27T02:35:17;34.95;;;8.32;;
78873;SDS011;68250;43.514;1.494;2024-01-27T02:37:42;31.57;;;7.27;;
78873;SDS011;68250;43.514;1.494;2024-01-27T02:40:08;31.38;;;8.48;;
78873;SDS011;68250;43.514;1.494;2024-01-27T02:42:35;27.85;;;8.93;;
78873;SDS011;68250;43.514;1.494;2024-01-27T02:45:02;23.67;;;7.13;;
78873;SDS011;68250;43.514;1.494;2024-01-27T02:47:28;42.53;;;8.52;;
78873;SDS011;68250;43.514;1.494;2024-01-27T02:49:54;49.67;;;8.05;;
78873;SDS011;68250;43.514;1.494;2024-01-27T02:52:19;24.60;;;7.73;;
78873;SDS011;68250;43.514;1.494;2024-01-27T02:54:45;74.37;;;7.70;;
78873;SDS011;68250;43.514;1.494;2024-01-27T02:57:11;41.20;;;7.10;;
78873;SDS011;68250;43.514;1.494;2024-01-27T02:59:36;92.30;;;8.32;;
78873;SDS011;68250;43.514;1.494;2024-01-27T03:02:04;25.00;;;7.13;;
78873;SDS011;68250;43.514;1.494;2024-01-27T03:04:30;25.38;;;6.85;;
78873;SDS011;68250;43.514;1.494;2024-01-27T03:06:56;20.25;;;6.78;;
78873;SDS011;68250;43.514;1.494;2024-01-27T03:09:22;31.20;;;6.97;;
78873;SDS011;68250;43.514;1.494;2024-01-27T03:11:47;26.58;;;7.03;;
78873;SDS011;68250;43.514;1.494;2024-01-27T03:14:13;21.95;;;5.60;;
78873;SDS011;68250;43.514;1.494;2024-01-27T03:16:39;41.58;;;7.10;;
78873;SDS011;68250;43.514;1.494;2024-01-27T03:19:05;32.57;;;7.27;;
78873;SDS011;68250;43.514;1.494;2024-01-27T03:21:31;43.88;;;7.20;;
78873;SDS011;68250;43.514;1.494;2024-01-27T03:23:57;63.92;;;7.78;;
78873;SDS011;68250;43.514;1.494;2024-01-27T03:26:23;63.97;;;7.03;;
78873;SDS011;68250;43.514;1.494;2024-01-27T03:28:49;45.63;;;6.55;;
78873;SDS011;68250;43.514;1.494;2024-01-27T03:31:14;52.33;;;6.27;;
78873;SDS011;68250;43.514;1.494;2024-01-27T03:33:40;49.78;;;6.63;;
78873;SDS011;68250;43.514;1.494;2024-01-27T03:36:09;56.67;;;6.60;;
78873;SDS011;68250;43.514;1.494;2024-01-27T03:38:36;52.92;;;6.85;;
78873;SDS011;68250;43.514;1.494;2024-01-27T03:41:03;24.30;;;6.40;;
78873;SDS011;68250;43.514;1.494;2024-01-27T03:43:29;67.70;;;7.22;;
78873;SDS011;68250;43.514;1.494;2024-01-27T03:45:56;29.55;;;6.30;;
78873;SDS011;68250;43.514;1.494;2024-01-27T03:48:22;34.30;;;6.25;;
78873;SDS011;68250;43.514;1.494;2024-01-27T03:50:48;30.58;;;6.90;;
78873;SDS011;68250;43.514;1.494;2024-01-27T03:53:13;43.00;;;6.30;;
78873;SDS011;68250;43.514;1.494;2024-01-27T03:55:39;55.08;;;6.70;;
78873;SDS011;68250;43.514;1.494;2024-01-27T03:58:04;28.97;;;5.77;;
78873;SDS011;68250;43.514;1.494;2024-01-27T04:00:30;74.53;;;6.70;;
78873;SDS011;68250;43.514;1.494;2024-01-27T04:03:00;31.58;;;6.00;;
78873;SDS011;68250;43.514;1.494;2024-01-27T04:05:27;103.57;;;6.57;;
78873;SDS011;68250;43.514;1.494;2024-01-27T04:07:53;83.40;;;7.13;;
78873;SDS011;68250;43.514;1.494;2024-01-27T04:10:19;93.90;;;6.93;;
78873;SDS011;68250;43.514;1.494;2024-01-27T04:12:46;64.38;;;6.05;;
78873;SDS011;68250;43.514;1.494;2024-01-27T04:15:11;61.03;;;6.53;;
78873;SDS011;68250;43.514;1.494;2024-01-27T04:17:38;24.38;;;5.90;;
78873;SDS011;68250;43.514;1.494;2024-01-27T04:20:05;74.30;;;5.97;;
78873;SDS011;68250;43.514;1.494;2024-01-27T04:22:32;41.00;;;6.15;;
78873;SDS011;68250;43.514;1.494;2024-01-27T04:24:58;53.63;;;5.78;;
78873;SDS011;68250;43.514;1.494;2024-01-27T04:27:26;67.83;;;5.70;;
78873;SDS011;68250;43.514;1.494;2024-01-27T04:29:53;77.18;;;6.28;;
78873;SDS011;68250;43.514;1.494;2024-01-27T04:32:18;43.00;;;5.13;;
78873;SDS011;68250;43.514;1.494;2024-01-27T04:34:44;110.10;;;6.50;;
78873;SDS011;68250;43.514;1.494;2024-01-27T04:37:10;98.85;;;6.88;;
78873;SDS011;68250;43.514;1.494;2024-01-27T04:39:35;42.63;;;5.30;;
78873;SDS011;68250;43.514;1.494;2024-01-27T04:42:01;39.40;;;5.70;;
78873;SDS011;68250;43.514;1.494;2024-01-27T04:44:27;37.53;;;5.45;;
78873;SDS011;68250;43.514;1.494;2024-01-27T04:46:52;41.13;;;5.40;;
78873;SDS011;68250;43.514;1.494;2024-01-27T04:49:18;50.58;;;5.95;;
78873;SDS011;68250;43.514;1.494;2024-01-27T04:51:43;47.40;;;5.90;;
78873;SDS011;68250;43.514;1.494;2024-01-27T04:54:09;28.40;;;4.70;;
78873;SDS011;68250;43.514;1.494;2024-01-27T04:56:35;34.93;;;4.90;;
78873;SDS011;68250;43.514;1.494;2024-01-27T04:59:01;51.92;;;5.60;;
78873;SDS011;68250;43.514;1.494;2024-01-27T05:01:27;80.97;;;5.90;;
78873;SDS011;68250;43.514;1.494;2024-01-27T05:03:53;74.77;;;5.87;;
78873;SDS011;68250;43.514;1.494;2024-01-27T05:06:19;48.30;;;5.30;;
78873;SDS011;68250;43.514;1.494;2024-01-27T05:08:44;80.20;;;5.80;;
78873;SDS011;68250;43.514;1.494;2024-01-27T05:11:10;31.53;;;5.60;;
78873;SDS011;68250;43.514;1.494;2024-01-27T05:13:36;20.77;;;5.22;;
78873;SDS011;68250;43.514;1.494;2024-01-27T05:16:03;63.90;;;5.28;;
78873;SDS011;68250;43.514;1.494;2024-01-27T05:18:28;33.75;;;5.07;;
78873;SDS011;68250;43.514;1.494;2024-01-27T05:20:54;62.20;;;5.13;;
78873;SDS011;68250;43.514;1.494;2024-01-27T05:23:20;67.32;;;5.28;;
78873;SDS011;68250;43.514;1.494;2024-01-27T05:25:45;52.43;;;4.40;;
78873;SDS011;68250;43.514;1.494;2024-01-27T05:28:11;65.72;;;4.75;;
78873;SDS011;68250;43.514;1.494;2024-01-27T05:30:37;34.17;;;4.47;;
78873;SDS011;68250;43.514;1.494;2024-01-27T05:33:02;50.43;;;4.33;;
78873;SDS011;68250;43.514;1.494;2024-01-27T05:35:29;32.50;;;4.22;;
78873;SDS011;68250;43.514;1.494;2024-01-27T05:37:54;91.40;;;5.03;;
78873;SDS011;68250;43.514;1.494;2024-01-27T05:40:20;71.60;;;4.93;;
78873;SDS011;68250;43.514;1.494;2024-01-27T05:42:46;18.90;;;3.90;;
78873;SDS011;68250;43.514;1.494;2024-01-27T05:45:11;22.43;;;3.33;;
78873;SDS011;68250;43.514;1.494;2024-01-27T05:47:38;39.08;;;3.97;;
78873;SDS011;68250;43.514;1.494;2024-01-27T05:50:03;24.27;;;3.88;;
78873;SDS011;68250;43.514;1.494;2024-01-27T05:52:30;24.63;;;3.63;;
78873;SDS011;68250;43.514;1.494;2024-01-27T05:54:55;29.88;;;3.65;;
78873;SDS011;68250;43.514;1.494;2024-01-27T05:57:21;25.93;;;3.80;;
78873;SDS011;68250;43.514;1.494;2024-01-27T05:59:47;46.53;;;3.80;;
78873;SDS011;68250;43.514;1.494;2024-01-27T06:02:12;56.13;;;4.10;;
78873;SDS011;68250;43.514;1.494;2024-01-27T06:04:38;42.53;;;3.58;;
78873;SDS011;68250;43.514;1.494;2024-01-27T06:07:04;34.80;;;3.20;;
78873;SDS011;68250;43.514;1.494;2024-01-27T06:09:30;22.80;;;3.20;;
78873;SDS011;68250;43.514;1.494;2024-01-27T06:11:58;28.77;;;3.43;;
78873;SDS011;68250;43.514;1.494;2024-01-27T06:14:25;21.92;;;3.20;;
78873;SDS011;68250;43.514;1.494;2024-01-27T06:16:51;31.02;;;3.40;;
78873;SDS011;68250;43.514;1.494;2024-01-27T06:19:17;18.90;;;3.05;;
78873;SDS011;68250;43.514;1.494;2024-01-27T06:21:43;17.65;;;3.00;;
78873;SDS011;68250;43.514;1.494;2024-01-27T06:24:09;14.82;;;2.90;;
78873;SDS011;68250;43.514;1.494;2024-01-27T06:26:34;10.00;;;2.90;;
78873;SDS011;68250;43.514;1.494;2024-01-27T06:29:00;33.80;;;3.17;;
78873;SDS011;68250;43.514;1.494;2024-01-27T06:31:27;14.40;;;2.55;;
78873;SDS011;68250;43.514;1.494;2024-01-27T06:33:53;22.15;;;3.67;;
78873;SDS011;68250;43.514;1.494;2024-01-27T06:36:18;15.03;;;4.13;;
78873;SDS011;68250;43.514;1.494;2024-01-27T06:38:44;25.10;;;3.30;;
78873;SDS011;68250;43.514;1.494;2024-01-27T06:41:10;28.87;;;2.50;;
78873;SDS011;68250;43.514;1.494;2024-01-27T06:43:35;35.63;;;2.43;;
78873;SDS011;68250;43.514;1.494;2024-01-27T06:46:01;14.75;;;2.30;;
78873;SDS011;68250;43.514;1.494;2024-01-27T06:48:27;38.50;;;2.57;;
78873;SDS011;68250;43.514;1.494;2024-01-27T06:50:52;27.02;;;2.38;;
78873;SDS011;68250;43.514;1.494;2024-01-27T06:53:18;16.70;;;2.10;;
78873;SDS011;68250;43.514;1.494;2024-01-27T06:55:44;13.05;;;2.00;;
78873;SDS011;68250;43.514;1.494;2024-01-27T06:58:10;10.47;;;2.50;;
78873;SDS011;68250;43.514;1.494;2024-01-27T07:00:36;20.63;;;1.90;;
78873;SDS011;68250;43.514;1.494;2024-01-27T07:03:01;28.97;;;4.20;;
78873;SDS011;68250;43.514;1.494;2024-01-27T07:05:27;21.60;;;3.05;;
78873;SDS011;68250;43.514;1.494;2024-01-27T07:07:53;14.55;;;2.08;;
78873;SDS011;68250;43.514;1.494;2024-01-27T07:10:19;47.13;;;2.80;;
78873;SDS011;68250;43.514;1.494;2024-01-27T07:12:45;12.57;;;2.10;;
78873;SDS011;68250;43.514;1.494;2024-01-27T07:15:11;28.70;;;2.20;;
78873;SDS011;68250;43.514;1.494;2024-01-27T07:17:36;11.27;;;2.30;;
78873;SDS011;68250;43.514;1.494;2024-01-27T07:20:02;39.67;;;3.47;;
78873;SDS011;68250;43.514;1.494;2024-01-27T07:22:28;53.65;;;2.97;;
78873;SDS011;68250;43.514;1.494;2024-01-27T07:24:54;35.87;;;2.40;;
78873;SDS011;68250;43.514;1.494;2024-01-27T07:27:20;56.17;;;3.08;;
78873;SDS011;68250;43.514;1.494;2024-01-27T07:29:47;31.23;;;2.35;;
78873;SDS011;68250;43.514;1.494;2024-01-27T07:32:13;64.47;;;3.50;;
78873;SDS011;68250;43.514;1.494;2024-01-27T07:34:42;18.73;;;2.17;;
78873;SDS011;68250;43.514;1.494;2024-01-27T07:37:08;25.92;;;2.58;;
78873;SDS011;68250;43.514;1.494;2024-01-27T07:39:34;16.48;;;2.47;;
78873;SDS011;68250;43.514;1.494;2024-01-27T07:42:00;13.40;;;2.67;;
78873;SDS011;68250;43.514;1.494;2024-01-27T07:44:26;24.02;;;2.40;;
78873;SDS011;68250;43.514;1.494;2024-01-27T07:46:52;24.77;;;2.27;;
78873;SDS011;68250;43.514;1.494;2024-01-27T07:49:17;28.02;;;2.72;;
78873;SDS011;68250;43.514;1.494;2024-01-27T07:51:43;33.60;;;2.25;;
78873;SDS011;68250;43.514;1.494;2024-01-27T07:54:09;16.02;;;2.42;;
78873;SDS011;68250;43.514;1.494;2024-01-27T07:56:35;16.50;;;2.38;;
78873;SDS011;68250;43.514;1.494;2024-01-27T07:59:01;24.43;;;2.57;;
78873;SDS011;68250;43.514;1.494;2024-01-27T08:01:26;32.10;;;3.47;;
78873;SDS011;68250;43.514;1.494;2024-01-27T08:03:52;21.57;;;3.20;;
78873;SDS011;68250;43.514;1.494;2024-01-27T08:06:18;19.77;;;3.10;;
78873;SDS011;68250;43.514;1.494;2024-01-27T08:08:46;20.02;;;2.45;;
78873;SDS011;68250;43.514;1.494;2024-01-27T08:11:13;13.63;;;2.00;;
78873;SDS011;68250;43.514;1.494;2024-01-27T08:13:40;18.05;;;2.30;;
78873;SDS011;68250;43.514;1.494;2024-01-27T08:16:06;28.17;;;2.97;;
78873;SDS011;68250;43.514;1.494;2024-01-27T08:18:34;38.03;;;3.73;;
78873;SDS011;68250;43.514;1.494;2024-01-27T08:21:04;19.95;;;2.70;;
78873;SDS011;68250;43.514;1.494;2024-01-27T08:23:29;19.48;;;2.60;;
78873;SDS011;68250;43.514;1.494;2024-01-27T08:25:55;31.53;;;3.50;;
78873;SDS011;68250;43.514;1.494;2024-01-27T08:28:21;36.75;;;3.10;;
78873;SDS011;68250;43.514;1.494;2024-01-27T08:30:47;30.73;;;2.80;;
78873;SDS011;68250;43.514;1.494;2024-01-27T08:33:13;27.88;;;2.55;;
78873;SDS011;68250;43.514;1.494;2024-01-27T08:35:38;12.93;;;2.40;;
78873;SDS011;68250;43.514;1.494;2024-01-27T08:38:04;20.65;;;2.70;;
78873;SDS011;68250;43.514;1.494;2024-01-27T08:40:31;37.17;;;3.08;;
78873;SDS011;68250;43.514;1.494;2024-01-27T08:42:57;35.13;;;3.53;;
78873;SDS011;68250;43.514;1.494;2024-01-27T08:45:23;21.92;;;2.55;;
78873;SDS011;68250;43.514;1.494;2024-01-27T08:47:49;36.72;;;2.72;;
78873;SDS011;68250;43.514;1.494;2024-01-27T08:50:15;41.00;;;2.70;;
78873;SDS011;68250;43.514;1.494;2024-01-27T08:52:40;43.17;;;3.63;;
78873;SDS011;68250;43.514;1.494;2024-01-27T08:55:06;62.17;;;2.33;;
78873;SDS011;68250;43.514;1.494;2024-01-27T08:57:32;59.65;;;2.80;;
78873;SDS011;68250;43.514;1.494;2024-01-27T08:59:58;31.83;;;2.20;;
78873;SDS011;68250;43.514;1.494;2024-01-27T09:02:24;45.72;;;2.90;;
78873;SDS011;68250;43.514;1.494;2024-01-27T09:04:49;34.50;;;2.83;;
78873;SDS011;68250;43.514;1.494;2024-01-27T09:07:15;26.30;;;2.70;;
78873;SDS011;68250;43.514;1.494;2024-01-27T09:09:41;13.35;;;2.80;;
78873;SDS011;68250;43.514;1.494;2024-01-27T09:12:07;14.57;;;3.35;;
78873;SDS011;68250;43.514;1.494;2024-01-27T09:14:33;23.23;;;4.28;;
78873;SDS011;68250;43.514;1.494;2024-01-27T09:16:59;15.87;;;3.50;;
78873;SDS011;68250;43.514;1.494;2024-01-27T09:19:27;47.22;;;4.35;;
78873;SDS011;68250;43.514;1.494;2024-01-27T09:21:53;53.17;;;4.50;;
78873;SDS011;68250;43.514;1.494;2024-01-27T09:24:19;21.83;;;3.73;;
78873;SDS011;68250;43.514;1.494;2024-01-27T09:26:45;11.68;;;3.83;;
78873;SDS011;68250;43.514;1.494;2024-01-27T09:29:10;37.57;;;4.50;;
78873;SDS011;68250;43.514;1.494;2024-01-27T09:31:36;33.33;;;4.80;;
78873;SDS011;68250;43.514;1.494;2024-01-27T09:34:02;33.60;;;4.30;;
78873;SDS011;68250;43.514;1.494;2024-01-27T09:36:28;30.25;;;4.70;;
78873;SDS011;68250;43.514;1.494;2024-01-27T09:38:53;41.07;;;4.17;;
78873;SDS011;68250;43.514;1.494;2024-01-27T09:41:20;14.43;;;3.97;;
78873;SDS011;68250;43.514;1.494;2024-01-27T09:43:46;24.33;;;4.20;;
78873;SDS011;68250;43.514;1.494;2024-01-27T09:46:13;17.23;;;3.83;;
78873;SDS011;68250;43.514;1.494;2024-01-27T09:48:40;16.50;;;3.90;;
78873;SDS011;68250;43.514;1.494;2024-01-27T09:51:06;21.33;;;3.10;;
78873;SDS011;68250;43.514;1.494;2024-01-27T09:53:33;37.58;;;3.65;;
78873;SDS011;68250;43.514;1.494;2024-01-27T09:55:59;16.67;;;3.30;;
78873;SDS011;68250;43.514;1.494;2024-01-27T09:58:27;9.35;;;3.10;;
78873;SDS011;68250;43.514;1.494;2024-01-27T10:00:58;8.40;;;2.92;;
78873;SDS011;68250;43.514;1.494;2024-01-27T10:03:25;15.63;;;3.28;;
78873;SDS011;68250;43.514;1.494;2024-01-27T10:05:52;17.70;;;3.30;;
78873;SDS011;68250;43.514;1.494;2024-01-27T10:08:23;38.63;;;3.60;;
78873;SDS011;68250;43.514;1.494;2024-01-27T10:10:55;19.75;;;2.85;;
78873;SDS011;68250;43.514;1.494;2024-01-27T10:13:21;16.40;;;3.40;;
78873;SDS011;68250;43.514;1.494;2024-01-27T10:16:06;8.25;;;2.90;;
78873;SDS011;68250;43.514;1.494;2024-01-27T10:18:32;17.20;;;3.17;;
78873;SDS011;68250;43.514;1.494;2024-01-27T10:20:59;15.27;;;2.73;;
78873;SDS011;68250;43.514;1.494;2024-01-27T10:23:25;11.85;;;3.00;;
78873;SDS011;68250;43.514;1.494;2024-01-27T10:25:51;27.48;;;3.58;;
78873;SDS011;68250;43.514;1.494;2024-01-27T10:28:17;18.63;;;3.40;;
78873;SDS011;68250;43.514;1.494;2024-01-27T10:30:43;30.87;;;3.33;;
78873;SDS011;68250;43.514;1.494;2024-01-27T10:33:09;13.50;;;3.35;;
78873;SDS011;68250;43.514;1.494;2024-01-27T10:35:35;11.18;;;3.20;;
78873;SDS011;68250;43.514;1.494;2024-01-27T10:38:01;9.00;;;3.03;;
78873;SDS011;68250;43.514;1.494;2024-01-27T10:40:27;15.02;;;3.15;;
78873;SDS011;68250;43.514;1.494;2024-01-27T10:43:11;10.27;;;3.77;;
78873;SDS011;68250;43.514;1.494;2024-01-27T10:45:41;30.65;;;3.97;;
78873;SDS011;68250;43.514;1.494;2024-01-27T10:48:07;32.38;;;3.58;;
78873;SDS011;68250;43.514;1.494;2024-01-27T10:50:37;35.40;;;7.82;;
78873;SDS011;68250;43.514;1.494;2024-01-27T10:53:04;159.57;;;25.08;;
78873;SDS011;68250;43.514;1.494;2024-01-27T10:55:34;17.20;;;4.47;;
78873;SDS011;68250;43.514;1.494;2024-01-27T10:58:01;20.73;;;3.90;;
78873;SDS011;68250;43.514;1.494;2024-01-27T11:00:28;15.18;;;3.60;;
78873;SDS011;68250;43.514;1.494;2024-01-27T11:02:58;15.98;;;3.35;;
78873;SDS011;68250;43.514;1.494;2024-01-27T11:05:25;18.13;;;3.53;;
78873;SDS011;68250;43.514;1.494;2024-01-27T11:07:54;16.27;;;3.60;;
78873;SDS011;68250;43.514;1.494;2024-01-27T11:10:20;30.42;;;3.72;;
78873;SDS011;68250;43.514;1.494;2024-01-27T11:12:47;6.70;;;3.30;;
78873;SDS011;68250;43.514;1.494;2024-01-27T11:15:14;24.10;;;3.60;;
78873;SDS011;68250;43.514;1.494;2024-01-27T11:17:40;15.63;;;3.23;;
78873;SDS011;68250;43.514;1.494;2024-01-27T11:20:10;29.58;;;3.70;;
78873;SDS011;68250;43.514;1.494;2024-01-27T11:22:36;25.42;;;4.78;;
78873;SDS011;68250;43.514;1.494;2024-01-27T11:27:38;32.90;;;3.70;;
78873;SDS011;68250;43.514;1.494;2024-01-27T11:30:05;15.68;;;3.60;;
78873;SDS011;68250;43.514;1.494;2024-01-27T11:32:32;6.85;;;3.55;;
78873;SDS011;68250;43.514;1.494;2024-01-27T11:35:00;7.57;;;3.47;;
78873;SDS011;68250;43.514;1.494;2024-01-27T11:37:29;9.83;;;3.73;;
78873;SDS011;68250;43.514;1.494;2024-01-27T11:40:04;11.32;;;4.10;;
78873;SDS011;68250;43.514;1.494;2024-01-27T11:42:31;11.40;;;4.07;;
78873;SDS011;68250;43.514;1.494;2024-01-27T11:44:57;10.90;;;4.20;;
78873;SDS011;68250;43.514;1.494;2024-01-27T11:47:22;12.60;;;4.80;;
78873;SDS011;68250;43.514;1.494;2024-01-27T11:49:52;10.60;;;4.57;;
78873;SDS011;68250;43.514;1.494;2024-01-27T11:52:19;19.55;;;4.63;;
78873;SDS011;68250;43.514;1.494;2024-01-27T11:54:45;8.00;;;4.63;;
78873;SDS011;68250;43.514;1.494;2024-01-27T11:57:10;11.80;;;4.90;;
78873;SDS011;68250;43.514;1.494;2024-01-27T11:59:36;11.30;;;4.65;;
78873;SDS011;68250;43.514;1.494;2024-01-27T12:02:02;10.43;;;5.40;;
78873;SDS011;68250;43.514;1.494;2024-01-27T12:04:28;8.55;;;5.15;;
78873;SDS011;68250;43.514;1.494;2024-01-27T12:06:54;13.38;;;6.32;;
78873;SDS011;68250;43.514;1.494;2024-01-27T12:09:20;11.23;;;5.50;;
78873;SDS011;68250;43.514;1.494;2024-01-27T12:11:47;8.57;;;5.00;;
78873;SDS011;68250;43.514;1.494;2024-01-27T12:14:13;7.37;;;4.27;;
78873;SDS011;68250;43.514;1.494;2024-01-27T12:16:38;6.75;;;3.65;;
78873;SDS011;68250;43.514;1.494;2024-01-27T12:19:04;7.80;;;4.10;;
78873;SDS011;68250;43.514;1.494;2024-01-27T12:21:30;8.93;;;4.72;;
78873;SDS011;68250;43.514;1.494;2024-01-27T12:23:56;8.27;;;4.37;;
78873;SDS011;68250;43.514;1.494;2024-01-27T12:26:23;7.70;;;4.22;;
78873;SDS011;68250;43.514;1.494;2024-01-27T12:28:51;7.97;;;4.13;;
78873;SDS011;68250;43.514;1.494;2024-01-27T12:31:17;8.57;;;4.82;;
78873;SDS011;68250;43.514;1.494;2024-01-27T12:36:17;10.05;;;5.40;;
78873;SDS011;68250;43.514;1.494;2024-01-27T12:38:46;8.77;;;5.32;;
78873;SDS011;68250;43.514;1.494;2024-01-27T12:41:32;9.63;;;5.50;;
78873;SDS011;68250;43.514;1.494;2024-01-27T12:44:00;10.32;;;6.63;;
78873;SDS011;68250;43.514;1.494;2024-01-27T12:46:27;12.77;;;6.25;;
78873;SDS011;68250;43.514;1.494;2024-01-27T12:48:53;12.32;;;6.88;;
78873;SDS011;68250;43.514;1.494;2024-01-27T12:51:19;11.55;;;6.50;;
78873;SDS011;68250;43.514;1.494;2024-01-27T12:53:45;11.32;;;6.30;;
78873;SDS011;68250;43.514;1.494;2024-01-27T12:56:12;13.20;;;6.85;;
78873;SDS011;68250;43.514;1.494;2024-01-27T12:58:38;13.88;;;5.78;;
78873;SDS011;68250;43.514;1.494;2024-01-27T13:01:05;9.88;;;5.70;;
78873;SDS011;68250;43.514;1.494;2024-01-27T13:03:31;13.35;;;6.90;;
78873;SDS011;68250;43.514;1.494;2024-01-27T13:05:57;11.68;;;6.80;;
78873;SDS011;68250;43.514;1.494;2024-01-27T13:08:23;12.30;;;7.00;;
78873;SDS011;68250;43.514;1.494;2024-01-27T13:10:49;12.57;;;6.97;;
78873;SDS011;68250;43.514;1.494;2024-01-27T13:13:14;13.83;;;7.40;;
78873;SDS011;68250;43.514;1.494;2024-01-27T13:15:40;13.60;;;6.90;;
78873;SDS011;68250;43.514;1.494;2024-01-27T13:18:06;12.35;;;7.28;;
78873;SDS011;68250;43.514;1.494;2024-01-27T13:20:32;11.33;;;6.53;;
78873;SDS011;68250;43.514;1.494;2024-01-27T13:23:00;12.32;;;6.97;;
78873;SDS011;68250;43.514;1.494;2024-01-27T13:25:26;9.48;;;5.60;;
78873;SDS011;68250;43.514;1.494;2024-01-27T13:27:52;9.52;;;5.20;;
78873;SDS011;68250;43.514;1.494;2024-01-27T13:30:17;9.23;;;5.37;;
78873;SDS011;68250;43.514;1.494;2024-01-27T13:32:43;10.60;;;5.68;;
78873;SDS011;68250;43.514;1.494;2024-01-27T13:35:09;9.35;;;5.45;;
78873;SDS011;68250;43.514;1.494;2024-01-27T13:37:35;10.05;;;5.88;;
78873;SDS011;68250;43.514;1.494;2024-01-27T13:40:02;10.68;;;5.88;;
78873;SDS011;68250;43.514;1.494;2024-01-27T13:42:29;10.15;;;5.60;;
78873;SDS011;68250;43.514;1.494;2024-01-27T13:44:55;9.50;;;5.45;;
78873;SDS011;68250;43.514;1.494;2024-01-27T13:47:21;9.70;;;5.93;;
78873;SDS011;68250;43.514;1.494;2024-01-27T13:49:47;11.95;;;6.13;;
78873;SDS011;68250;43.514;1.494;2024-01-27T13:52:13;10.60;;;6.35;;
78873;SDS011;68250;43.514;1.494;2024-01-27T13:54:39;10.17;;;6.57;;
78873;SDS011;68250;43.514;1.494;2024-01-27T13:57:05;10.45;;;6.13;;
78873;SDS011;68250;43.514;1.494;2024-01-27T13:59:31;10.50;;;6.13;;
78873;SDS011;68250;43.514;1.494;2024-01-27T14:01:57;9.73;;;5.88;;
78873;SDS011;68250;43.514;1.494;2024-01-27T14:04:23;11.73;;;7.27;;
78873;SDS011;68250;43.514;1.494;2024-01-27T14:06:52;11.55;;;7.20;;
78873;SDS011;68250;43.514;1.494;2024-01-27T14:09:22;12.00;;;7.38;;
78873;SDS011;68250;43.514;1.494;2024-01-27T14:11:48;11.82;;;6.57;;
78873;SDS011;68250;43.514;1.494;2024-01-27T14:14:13;11.57;;;6.97;;
78873;SDS011;68250;43.514;1.494;2024-01-27T14:16:39;12.10;;;6.72;;
78873;SDS011;68250;43.514;1.494;2024-01-27T14:19:06;9.25;;;6.03;;
78873;SDS011;68250;43.514;1.494;2024-01-27T14:21:32;10.00;;;5.90;;
78873;SDS011;68250;43.514;1.494;2024-01-27T14:23:59;8.52;;;5.22;;
78873;SDS011;68250;43.514;1.494;2024-01-27T14:26:30;9.63;;;6.13;;
78873;SDS011;68250;43.514;1.494;2024-01-27T14:28:56;11.83;;;6.83;;
78873;SDS011;68250;43.514;1.494;2024-01-27T14:31:21;8.65;;;5.57;;
78873;SDS011;68250;43.514;1.494;2024-01-27T14:33:47;8.53;;;5.13;;